createdAt,value
2024-02-12T00:01:18.428Z,9.02
2024-02-12T00:03:46.645Z,9.21
2024-02-12T00:06:16.269Z,9.14
2024-02-12T00:08:44.800Z,9.21
2024-02-12T00:11:15.566Z,9.23
2024-02-12T00:13:43.340Z,9.07
2024-02-12T00:16:12.074Z,9.13
2024-02-12T00:18:39.965Z,9.11
2024-02-12T00:21:08.885Z,9.19
2024-02-12T00:23:45.446Z,9.26
2024-02-12T00:26:15.740Z,9.15
2024-02-12T00:28:46.364Z,9.17
2024-02-12T00:31:14.123Z,9.03
2024-02-12T00:33:42.101Z,9.08
2024-02-12T00:36:16.537Z,9.07
2024-02-12T00:38:47.920Z,8.89
2024-02-12T00:41:22.489Z,8.81
2024-02-12T00:44:08.287Z,8.96
2024-02-12T00:46:37.552Z,8.95
2024-02-12T00:49:08.296Z,8.95
2024-02-12T00:51:38.880Z,8.98
2024-02-12T00:54:07.600Z,8.99
2024-02-12T00:56:38.850Z,8.94
2024-02-12T00:59:08.785Z,8.90
2024-02-12T01:01:37.303Z,8.86
2024-02-12T01:04:08.868Z,8.78
2024-02-12T01:06:36.919Z,8.82
2024-02-12T01:09:06.674Z,8.88
2024-02-12T01:11:40.838Z,8.84
2024-02-12T01:14:13.163Z,8.92
2024-02-12T01:16:43.761Z,8.91
2024-02-12T01:19:12.120Z,8.91
2024-02-12T01:21:41.296Z,8.68
2024-02-12T01:24:09.819Z,8.71
2024-02-12T01:26:38.949Z,8.81
2024-02-12T01:29:07.279Z,8.91
2024-02-12T01:31:37.825Z,8.73
2024-02-12T01:34:09.202Z,8.76
2024-02-12T01:36:39.654Z,8.76
2024-02-12T01:39:08.392Z,8.53
2024-02-12T01:41:35.882Z,8.52
2024-02-12T01:44:05.905Z,8.55
2024-02-12T01:46:36.241Z,8.57
2024-02-12T01:49:04.348Z,8.64
2024-02-12T01:51:32.422Z,8.65
2024-02-12T01:54:02.878Z,8.57
2024-02-12T01:56:37.263Z,8.65
2024-02-12T01:59:19.324Z,8.66
2024-02-12T02:01:54.083Z,8.71
2024-02-12T02:04:28.605Z,8.64
2024-02-12T02:06:59.523Z,8.66
2024-02-12T02:09:30.575Z,8.74
2024-02-12T02:11:59.234Z,8.74
2024-02-12T02:14:36.626Z,8.65
2024-02-12T02:17:06.515Z,8.70
2024-02-12T02:19:35.501Z,8.69
2024-02-12T02:22:08.313Z,8.60
2024-02-12T02:24:40.345Z,8.70
2024-02-12T02:27:08.710Z,8.57
2024-02-12T02:29:38.501Z,8.57
2024-02-12T02:32:07.506Z,8.66
2024-02-12T02:34:38.413Z,8.61
2024-02-12T02:37:05.903Z,8.69
2024-02-12T02:39:33.866Z,8.59
2024-02-12T02:42:02.902Z,8.41
2024-02-12T02:44:36.678Z,8.51
2024-02-12T02:47:05.838Z,8.57
2024-02-12T02:49:34.023Z,8.49
2024-02-12T02:52:02.101Z,8.42
2024-02-12T02:54:30.007Z,8.31
2024-02-12T02:57:00.169Z,8.41
2024-02-12T02:59:29.963Z,8.35
2024-02-12T03:02:01.098Z,8.33
2024-02-12T03:04:29.088Z,8.39
2024-02-12T03:07:00.273Z,8.43
2024-02-12T03:09:34.050Z,8.47
2024-02-12T03:12:03.363Z,8.49
2024-02-12T03:14:32.932Z,8.41
2024-02-12T03:17:02.612Z,8.53
2024-02-12T03:19:30.168Z,8.59
2024-02-12T03:21:58.280Z,8.58
2024-02-12T03:24:38.806Z,8.50
2024-02-12T03:27:06.561Z,8.53
2024-02-12T03:32:43.510Z,8.52
2024-02-12T03:35:11.812Z,8.52
2024-02-12T03:37:42.410Z,8.51
2024-02-12T03:40:19.205Z,8.47
2024-02-12T03:42:51.457Z,8.49
2024-02-12T03:45:26.091Z,8.36
2024-02-12T03:48:05.934Z,8.44
2024-02-12T03:50:54.502Z,8.27
2024-02-12T03:53:43.350Z,8.45
2024-02-12T03:56:42.684Z,8.40
2024-02-12T03:59:29.712Z,8.30
2024-02-12T04:01:59.650Z,8.25
2024-02-12T04:04:31.400Z,8.23
2024-02-12T04:06:59.187Z,8.35
2024-02-12T04:09:27.939Z,8.30
2024-02-12T04:12:07.633Z,8.33
2024-02-12T04:14:35.815Z,8.30
2024-02-12T04:17:10.631Z,8.28
2024-02-12T04:19:40.171Z,8.38
2024-02-12T04:22:15.012Z,8.42
2024-02-12T04:24:43.442Z,8.36
2024-02-12T04:27:14.671Z,8.43
2024-02-12T04:29:43.140Z,8.45
2024-02-12T04:32:16.065Z,8.43
2024-02-12T04:34:50.499Z,8.39
2024-02-12T04:37:18.786Z,8.31
2024-02-12T04:39:49.742Z,8.40
2024-02-12T04:42:21.158Z,8.36
2024-02-12T04:44:53.982Z,8.36
2024-02-12T04:47:25.582Z,8.23
2024-02-12T04:49:53.701Z,8.41
2024-02-12T04:52:23.487Z,8.29
2024-02-12T04:54:51.091Z,8.27
2024-02-12T04:57:18.726Z,8.30
2024-02-12T04:59:49.570Z,8.20
2024-02-12T05:02:22.452Z,8.12
2024-02-12T05:04:52.070Z,8.03
2024-02-12T05:07:20.136Z,7.98
2024-02-12T05:09:51.780Z,7.91
2024-02-12T05:12:19.587Z,7.98
2024-02-12T05:14:49.601Z,7.93
2024-02-12T05:17:25.246Z,7.94
2024-02-12T05:20:13.426Z,8.04
2024-02-12T05:22:44.672Z,8.03
2024-02-12T05:25:15.986Z,8.16
2024-02-12T05:27:43.315Z,8.10
2024-02-12T05:30:15.577Z,8.25
2024-02-12T05:32:43.664Z,8.19
2024-02-12T05:35:13.600Z,8.31
2024-02-12T05:37:41.569Z,8.28
2024-02-12T05:40:14.447Z,8.28
2024-02-12T05:42:45.456Z,8.38
2024-02-12T05:45:16.057Z,8.25
2024-02-12T05:47:43.211Z,8.40
2024-02-12T05:50:13.083Z,8.35
2024-02-12T05:52:43.679Z,8.30
2024-02-12T05:55:12.741Z,8.29
2024-02-12T05:57:40.348Z,8.31
2024-02-12T06:00:10.175Z,8.38
2024-02-12T06:02:38.130Z,8.32
2024-02-12T06:05:06.553Z,8.29
2024-02-12T06:07:38.081Z,8.23
2024-02-12T06:10:09.831Z,8.33
2024-02-12T06:12:44.050Z,8.28
2024-02-12T06:15:13.637Z,8.32
2024-02-12T06:18:00.450Z,8.24
2024-02-12T06:20:31.719Z,8.19
2024-02-12T06:23:12.451Z,8.29
2024-02-12T06:25:43.790Z,8.33
2024-02-12T06:28:12.757Z,8.25
2024-02-12T06:30:41.447Z,8.25
2024-02-12T06:33:12.965Z,8.27
2024-02-12T06:35:44.019Z,8.17
2024-02-12T06:38:16.149Z,8.22
2024-02-12T06:40:45.325Z,8.13
2024-02-12T06:43:13.138Z,8.16
2024-02-12T06:45:46.095Z,8.10
2024-02-12T06:48:14.273Z,8.09
2024-02-12T06:50:45.978Z,8.08
2024-02-12T06:53:18.993Z,8.01
2024-02-12T06:55:47.816Z,7.92
2024-02-12T06:58:58.725Z,7.97
2024-02-12T07:01:40.209Z,7.96
2024-02-12T07:04:14.025Z,7.88
2024-02-12T07:06:53.089Z,7.86
2024-02-12T07:09:39.448Z,7.81
2024-02-12T07:12:14.300Z,7.77
2024-02-12T07:14:43.593Z,7.99
2024-02-12T07:17:27.546Z,7.96
2024-02-12T07:20:04.575Z,7.94
2024-02-12T07:22:38.338Z,8.04
2024-02-12T07:25:13.928Z,8.06
2024-02-12T07:27:45.735Z,8.03
2024-02-12T07:30:18.428Z,8.00
2024-02-12T07:32:52.061Z,7.99
2024-02-12T07:35:31.178Z,8.00
2024-02-12T07:38:05.916Z,8.04
2024-02-12T07:40:48.193Z,7.98
2024-02-12T07:43:19.511Z,7.93
2024-02-12T07:45:56.844Z,7.98
2024-02-12T07:48:29.742Z,8.02
2024-02-12T07:51:01.781Z,8.06
2024-02-12T07:53:31.341Z,8.11
2024-02-12T07:56:02.546Z,8.23
2024-02-12T07:58:36.640Z,8.13
2024-02-12T08:01:18.707Z,8.42
2024-02-12T08:03:55.480Z,8.49
2024-02-12T08:06:26.554Z,8.65
2024-02-12T08:08:57.011Z,8.68
2024-02-12T08:11:32.393Z,8.72
2024-02-12T08:14:10.653Z,8.76
2024-02-12T08:17:12.888Z,8.85
2024-02-12T08:19:51.579Z,9.00
2024-02-12T08:22:24.429Z,8.93
2024-02-12T08:25:03.811Z,8.91
2024-02-12T08:27:59.399Z,8.82
2024-02-12T08:30:29.121Z,8.88
2024-02-12T08:33:05.926Z,8.94
2024-02-12T08:35:36.927Z,8.87
2024-02-12T08:38:13.598Z,9.10
2024-02-12T08:40:46.843Z,8.91
2024-02-12T08:43:20.493Z,8.99
2024-02-12T08:45:58.439Z,9.20
2024-02-12T08:48:44.249Z,9.17
2024-02-12T08:51:12.733Z,9.27
2024-02-12T08:53:50.067Z,9.33
2024-02-12T08:56:24.856Z,9.08
2024-02-12T08:59:11.932Z,9.31
2024-02-12T09:01:45.192Z,9.21
2024-02-12T09:04:19.452Z,9.10
2024-02-12T09:06:57.339Z,9.26
2024-02-12T09:09:27.236Z,9.30
2024-02-12T09:11:55.217Z,9.47
2024-02-12T09:14:29.485Z,9.24
2024-02-12T09:16:59.509Z,9.25
2024-02-12T09:19:27.188Z,9.42
2024-02-12T09:21:54.612Z,9.56
2024-02-12T09:24:23.651Z,9.67
2024-02-12T09:26:54.346Z,9.62
2024-02-12T09:29:21.588Z,9.44
2024-02-12T09:31:54.562Z,9.62
2024-02-12T09:34:28.079Z,9.51
2024-02-12T09:36:56.084Z,9.52
2024-02-12T09:39:24.050Z,9.70
2024-02-12T09:41:58.755Z,9.66
2024-02-12T09:44:31.793Z,9.43
2024-02-12T09:47:06.045Z,9.54
2024-02-12T09:49:36.516Z,9.59
2024-02-12T09:52:05.907Z,9.73
2024-02-12T09:54:37.559Z,9.72
2024-02-12T09:57:05.904Z,9.74
2024-02-12T09:59:33.842Z,9.74
2024-02-12T10:02:07.013Z,9.75
2024-02-12T10:04:39.027Z,9.73
2024-02-12T10:07:09.745Z,9.93
2024-02-12T10:09:37.217Z,10.09
2024-02-12T10:12:10.714Z,9.58
2024-02-12T10:14:40.759Z,9.84
2024-02-12T10:17:23.829Z,9.93
2024-02-12T10:19:54.377Z,9.94
2024-02-12T10:22:25.163Z,9.98
2024-02-12T10:24:53.277Z,9.94
2024-02-12T10:27:22.613Z,10.19
2024-02-12T10:30:11.912Z,10.38
2024-02-12T10:32:47.333Z,10.66
2024-02-12T10:35:24.896Z,10.64
2024-02-12T10:37:54.969Z,10.49
2024-02-12T10:40:40.820Z,10.80
2024-02-12T10:43:16.633Z,10.70
2024-02-12T10:45:48.774Z,10.36
2024-02-12T10:48:18.988Z,10.48
2024-02-12T10:50:51.062Z,10.42
2024-02-12T10:53:19.648Z,10.36
2024-02-12T10:55:51.000Z,10.36
2024-02-12T10:58:22.720Z,10.51
2024-02-12T11:01:06.877Z,10.35
2024-02-12T11:03:45.090Z,10.50
2024-02-12T11:06:17.836Z,10.71
2024-02-12T11:08:50.383Z,10.76
2024-02-12T11:11:24.629Z,10.75
2024-02-12T11:14:02.212Z,10.86
2024-02-12T11:16:32.307Z,10.63
2024-02-12T11:19:04.394Z,10.83
2024-02-12T11:27:41.907Z,11.05
2024-02-12T11:30:13.885Z,11.17
2024-02-12T11:32:46.029Z,11.12
2024-02-12T11:35:20.794Z,10.62
2024-02-12T11:37:57.958Z,10.69
2024-02-12T11:41:02.830Z,10.43
2024-02-12T11:43:35.873Z,10.50
2024-02-12T11:46:10.161Z,10.73
2024-02-12T11:48:41.950Z,10.75
2024-02-12T11:51:23.490Z,10.79
2024-02-12T11:54:16.783Z,11.07
2024-02-12T11:56:52.638Z,11.04
2024-02-12T11:59:24.766Z,11.12
2024-02-12T12:01:57.521Z,10.85
2024-02-12T12:04:25.377Z,10.86
2024-02-12T12:07:01.026Z,10.83
2024-02-12T12:09:35.224Z,10.81
2024-02-12T12:12:14.466Z,10.51
2024-02-12T12:14:45.033Z,10.49
2024-02-12T12:17:30.270Z,10.32
2024-02-12T12:20:02.889Z,10.33
2024-02-12T12:22:36.222Z,10.36
2024-02-12T12:25:05.866Z,10.46
2024-02-12T12:27:36.732Z,10.52
2024-02-12T12:30:19.666Z,10.71
2024-02-12T12:32:57.266Z,10.64
2024-02-12T12:35:29.031Z,10.63
2024-02-12T12:38:11.562Z,10.47
2024-02-12T12:40:43.878Z,10.50
2024-02-12T12:43:14.797Z,10.59
2024-02-12T12:45:49.036Z,10.59
2024-02-12T12:48:26.711Z,10.36
2024-02-12T12:51:03.509Z,10.39
2024-02-12T12:53:34.155Z,10.44
2024-02-12T12:56:05.242Z,10.38
2024-02-12T12:58:37.840Z,10.33
2024-02-12T13:01:15.058Z,10.66
2024-02-12T13:03:47.210Z,10.35
2024-02-12T13:06:22.801Z,10.56
2024-02-12T13:08:55.887Z,10.31
2024-02-12T13:11:28.947Z,10.48
2024-02-12T13:13:57.380Z,10.55
2024-02-12T13:16:26.403Z,10.57
2024-02-12T13:18:56.793Z,10.39
2024-02-12T13:21:26.234Z,10.47
2024-02-12T13:23:59.526Z,10.11
2024-02-12T13:26:33.609Z,10.16
2024-02-12T13:29:07.584Z,10.19
2024-02-12T13:31:37.494Z,10.39
2024-02-12T13:34:11.340Z,10.50
2024-02-12T13:36:45.289Z,10.72
2024-02-12T13:39:15.589Z,10.71
2024-02-12T13:41:48.318Z,10.47
2024-02-12T13:44:21.807Z,10.21
2024-02-12T13:46:49.574Z,10.31
2024-02-12T13:49:25.380Z,10.35
2024-02-12T13:51:53.254Z,10.25
2024-02-12T13:54:24.325Z,10.16
2024-02-12T13:56:53.480Z,10.18
2024-02-12T13:59:33.505Z,10.28
2024-02-12T14:02:06.987Z,10.28
2024-02-12T14:04:40.124Z,10.32
2024-02-12T14:07:09.593Z,10.18
2024-02-12T14:09:41.930Z,10.34
2024-02-12T14:12:09.792Z,10.10
2024-02-12T14:14:39.109Z,10.12
2024-02-12T14:17:10.097Z,9.83
2024-02-12T14:19:47.332Z,9.69
2024-02-12T14:22:15.157Z,9.67
2024-02-12T14:24:53.008Z,9.78
2024-02-12T14:27:33.586Z,9.86
2024-02-12T14:30:01.051Z,9.86
2024-02-12T14:32:42.935Z,9.90
2024-02-12T14:35:16.020Z,9.73
2024-02-12T14:37:45.391Z,9.75
2024-02-12T14:40:16.319Z,9.72
2024-02-12T14:42:56.018Z,9.78
2024-02-12T14:45:32.469Z,9.81
2024-02-12T14:48:22.426Z,9.70
2024-02-12T14:50:52.949Z,9.78
2024-02-12T14:53:23.941Z,9.79
2024-02-12T14:55:56.237Z,9.81
2024-02-12T14:58:34.042Z,9.85
2024-02-12T15:01:07.007Z,9.95
2024-02-12T15:03:45.450Z,9.81
2024-02-12T15:06:43.149Z,9.82
2024-02-12T15:09:16.356Z,9.87
2024-02-12T15:11:53.968Z,9.77
2024-02-12T15:14:23.557Z,9.64
2024-02-12T15:17:06.895Z,9.96
2024-02-12T15:19:37.810Z,10.08
2024-02-12T15:22:14.188Z,10.07
2024-02-12T15:24:43.999Z,10.16
2024-02-12T15:27:14.016Z,10.01
2024-02-12T15:29:49.759Z,9.89
2024-02-12T15:32:24.415Z,9.55
2024-02-12T15:34:57.014Z,9.38
2024-02-12T15:37:31.051Z,9.12
2024-02-12T15:40:06.720Z,8.98
2024-02-12T15:42:36.200Z,8.98
2024-02-12T15:45:06.232Z,8.95
2024-02-12T15:47:34.554Z,8.91
2024-02-12T15:50:08.765Z,9.04
2024-02-12T15:53:03.217Z,9.00
2024-02-12T15:55:35.353Z,8.91
2024-02-12T15:58:05.694Z,8.86
2024-02-12T16:00:47.864Z,8.77
2024-02-12T16:03:18.842Z,8.85
2024-02-12T16:06:17.419Z,8.92
2024-02-12T16:08:47.934Z,8.75
2024-02-12T16:11:22.485Z,8.76
2024-02-12T16:13:57.804Z,8.86
2024-02-12T16:16:29.584Z,8.77
2024-02-12T16:18:59.325Z,8.83
2024-02-12T16:21:37.323Z,8.91
2024-02-12T16:24:16.229Z,8.74
2024-02-12T16:26:46.245Z,8.73
2024-02-12T16:29:28.620Z,8.55
2024-02-12T16:32:06.075Z,8.61
2024-02-12T16:34:36.356Z,8.61
2024-02-12T16:37:05.575Z,8.45
2024-02-12T16:39:38.946Z,8.44
2024-02-12T16:44:52.998Z,8.32
2024-02-12T16:47:23.036Z,8.36
2024-02-12T16:49:54.404Z,8.31
2024-02-12T16:52:21.677Z,8.33
2024-02-12T16:54:50.795Z,8.31
2024-02-12T16:57:19.152Z,8.25
2024-02-12T16:59:52.160Z,8.30
2024-02-12T17:02:24.076Z,8.20
2024-02-12T17:04:57.868Z,8.12
2024-02-12T17:07:29.092Z,8.22
2024-02-12T17:09:56.684Z,8.26
2024-02-12T17:12:24.164Z,8.10
2024-02-12T17:14:54.488Z,8.00
2024-02-12T17:17:26.359Z,8.00
2024-02-12T17:19:57.190Z,7.89
2024-02-12T17:22:27.175Z,7.82
2024-02-12T17:24:58.817Z,7.83
2024-02-12T17:27:26.664Z,7.73
2024-02-12T17:29:54.467Z,7.75
2024-02-12T17:32:24.741Z,7.78
2024-02-12T17:34:52.260Z,7.68
2024-02-12T17:37:24.971Z,7.64
2024-02-12T17:39:53.132Z,7.63
2024-02-12T17:42:21.496Z,7.56
2024-02-12T17:44:52.129Z,7.59
2024-02-12T17:47:21.474Z,7.47
2024-02-12T17:49:51.865Z,7.51
2024-02-12T17:52:21.307Z,7.48
2024-02-12T17:54:51.476Z,7.43
2024-02-12T17:57:24.382Z,7.50
2024-02-12T17:59:53.554Z,7.40
2024-02-12T18:02:21.544Z,7.36
2024-02-12T18:04:50.824Z,7.29
2024-02-12T18:07:18.359Z,7.29
2024-02-12T18:09:55.184Z,7.22
2024-02-12T18:12:23.190Z,7.31
2024-02-12T18:15:17.926Z,7.26
2024-02-12T18:17:50.043Z,7.27
2024-02-12T18:20:19.568Z,7.20
2024-02-12T18:22:46.795Z,7.26
2024-02-12T18:25:16.139Z,7.14
2024-02-12T18:27:47.049Z,7.08
2024-02-12T18:30:16.146Z,7.17
2024-02-12T18:32:45.030Z,7.14
2024-02-12T18:35:16.224Z,7.07
2024-02-12T18:37:51.361Z,7.12
2024-02-12T18:40:19.532Z,7.04
2024-02-12T18:42:48.144Z,7.11
2024-02-12T18:45:33.171Z,7.10
2024-02-12T18:48:26.128Z,6.99
2024-02-12T18:50:59.772Z,6.91
2024-02-12T18:53:29.076Z,7.07
2024-02-12T18:55:56.547Z,6.98
2024-02-12T18:58:25.194Z,6.97
2024-02-12T19:00:52.847Z,6.97
2024-02-12T19:03:22.319Z,7.00
2024-02-12T19:05:52.730Z,6.92
2024-02-12T19:08:23.138Z,6.88
2024-02-12T19:10:52.071Z,6.92
2024-02-12T19:13:19.333Z,6.85
2024-02-12T19:15:46.392Z,6.87
2024-02-12T19:18:15.143Z,6.77
2024-02-12T19:20:44.107Z,6.80
2024-02-12T19:23:14.450Z,6.69
2024-02-12T19:25:42.148Z,6.75
2024-02-12T19:28:11.512Z,6.81
2024-02-12T19:30:42.472Z,6.77
2024-02-12T19:33:10.920Z,6.80
2024-02-12T19:35:38.586Z,6.74
2024-02-12T19:38:06.375Z,6.79
2024-02-12T19:40:36.340Z,6.77
2024-02-12T19:43:06.252Z,6.81
2024-02-12T19:45:35.506Z,6.75
2024-02-12T19:48:03.187Z,6.72
2024-02-12T19:50:31.522Z,6.63
2024-02-12T19:52:58.692Z,6.70
2024-02-12T19:55:26.822Z,6.72
2024-02-12T19:57:55.005Z,6.67
2024-02-12T20:00:22.319Z,6.72
2024-02-12T20:02:52.417Z,6.69
2024-02-12T20:05:20.554Z,6.69
2024-02-12T20:07:51.686Z,6.70
2024-02-12T20:10:20.704Z,6.63
2024-02-12T20:12:48.518Z,6.65
2024-02-12T20:15:17.114Z,6.68
2024-02-12T20:17:46.516Z,6.71
2024-02-12T20:20:16.894Z,6.67
2024-02-12T20:22:45.496Z,6.63
2024-02-12T20:25:14.027Z,6.72
2024-02-12T20:27:43.099Z,6.63
2024-02-12T20:30:12.635Z,6.66
2024-02-12T20:32:43.492Z,6.65
2024-02-12T20:35:15.867Z,6.69
2024-02-12T20:37:45.168Z,6.67
2024-02-12T20:40:16.087Z,6.70
2024-02-12T20:42:44.292Z,6.66
2024-02-12T20:45:11.805Z,6.61
2024-02-12T20:47:42.242Z,6.69
2024-02-12T20:50:12.098Z,6.63
2024-02-12T20:52:39.695Z,6.69
2024-02-12T20:55:11.686Z,6.70
2024-02-12T20:57:39.132Z,6.66
2024-02-12T21:00:08.206Z,6.65
2024-02-12T21:02:36.735Z,6.66
2024-02-12T21:05:04.388Z,6.55
2024-02-12T21:07:32.849Z,6.55
2024-02-12T21:10:00.825Z,6.59
2024-02-12T21:12:31.037Z,6.52
2024-02-12T21:15:01.654Z,6.53
2024-02-12T21:17:29.378Z,6.44
2024-02-12T21:19:57.005Z,6.49
2024-02-12T21:22:24.833Z,6.46
2024-02-12T21:24:52.369Z,6.35
2024-02-12T21:27:20.005Z,6.42
2024-02-12T21:29:52.045Z,6.41
2024-02-12T21:32:20.583Z,6.37
2024-02-12T21:34:48.555Z,6.41
2024-02-12T21:37:18.682Z,6.43
2024-02-12T21:39:49.785Z,6.40
2024-02-12T21:42:28.398Z,6.41
2024-02-12T21:45:02.193Z,6.42
2024-02-12T21:47:32.246Z,6.36
2024-02-12T21:50:00.202Z,6.42
2024-02-12T21:52:28.791Z,6.34
2024-02-12T21:54:56.175Z,6.33
2024-02-12T21:57:27.394Z,6.29
2024-02-12T21:59:55.646Z,6.38
2024-02-12T22:02:24.762Z,6.38
2024-02-12T22:04:53.594Z,6.42
2024-02-12T22:07:21.599Z,6.38
2024-02-12T22:09:51.739Z,6.39
2024-02-12T22:12:19.732Z,6.31
2024-02-12T22:14:49.586Z,6.28
2024-02-12T22:17:17.488Z,6.33
2024-02-12T22:19:48.622Z,6.37
2024-02-12T22:22:20.824Z,6.30
2024-02-12T22:24:49.388Z,6.31
2024-02-12T22:27:18.915Z,6.35
2024-02-12T22:29:47.038Z,6.23
2024-02-12T22:32:17.308Z,6.26
2024-02-12T22:34:50.714Z,6.16
2024-02-12T22:37:23.551Z,6.09
2024-02-12T22:39:53.623Z,6.09
2024-02-12T22:42:23.140Z,6.15
2024-02-12T22:44:52.014Z,6.18
2024-02-12T22:47:21.017Z,6.12
2024-02-12T22:49:51.179Z,6.11
2024-02-12T22:52:21.920Z,5.98
2024-02-12T22:54:49.616Z,5.97
2024-02-12T22:57:17.919Z,5.95
2024-02-12T22:59:45.279Z,5.99
2024-02-12T23:02:13.921Z,5.96
2024-02-12T23:04:41.367Z,5.98
2024-02-12T23:07:09.979Z,5.85
2024-02-12T23:09:37.428Z,5.90
2024-02-12T23:12:06.514Z,5.77
2024-02-12T23:14:33.989Z,5.81
2024-02-12T23:17:04.624Z,5.84
2024-02-12T23:19:33.500Z,5.82
2024-02-12T23:22:01.758Z,5.75
2024-02-12T23:24:30.591Z,5.76
2024-02-12T23:26:59.064Z,5.71
2024-02-12T23:29:26.518Z,5.75
2024-02-12T23:31:54.259Z,5.70
2024-02-12T23:34:24.402Z,5.78
2024-02-12T23:36:52.174Z,5.81
2024-02-12T23:39:20.373Z,5.80
2024-02-12T23:41:50.936Z,5.81
2024-02-12T23:44:21.988Z,5.79
2024-02-12T23:46:49.393Z,5.81
2024-02-12T23:49:16.819Z,5.82
2024-02-12T23:51:45.243Z,5.82
2024-02-12T23:54:12.714Z,5.79
2024-02-12T23:56:40.167Z,5.72
2024-02-12T23:59:08.950Z,5.84
